sensor_id;sensor_type;location;lat;lon;timestamp;temperature;humidity
38333;DHT22;25748;46.670;14.272;2024-01-30T00:01:45;-4.30;58.00
38333;DHT22;25748;46.670;14.272;2024-01-30T00:04:11;-4.30;58.00
38333;DHT22;25748;46.670;14.272;2024-01-30T00:06:36;-4.30;58.00
38333;DHT22;25748;46.670;14.272;2024-01-30T00:09:02;-4.30;57.90
38333;DHT22;25748;46.670;14.272;2024-01-30T00:11:28;-4.40;57.70
38333;DHT22;25748;46.670;14.272;2024-01-30T00:13:54;-4.40;58.00
38333;DHT22;25748;46.670;14.272;2024-01-30T00:16:25;-4.40;58.00
38333;DHT22;25748;46.670;14.272;2024-01-30T00:18:51;-4.40;58.00
38333;DHT22;25748;46.670;14.272;2024-01-30T00:21:17;-4.40;58.00
38333;DHT22;25748;46.670;14.272;2024-01-30T00:23:43;-4.50;57.80
38333;DHT22;25748;46.670;14.272;2024-01-30T00:26:09;-4.50;57.90
38333;DHT22;25748;46.670;14.272;2024-01-30T00:28:34;-4.50;57.90
38333;DHT22;25748;46.670;14.272;2024-01-30T00:31:00;-4.50;57.90
38333;DHT22;25748;46.670;14.272;2024-01-30T00:33:26;-4.60;57.60
38333;DHT22;25748;46.670;14.272;2024-01-30T00:35:53;-4.70;57.60
38333;DHT22;25748;46.670;14.272;2024-01-30T00:38:19;-4.70;57.90
38333;DHT22;25748;46.670;14.272;2024-01-30T00:40:44;-4.70;57.90
38333;DHT22;25748;46.670;14.272;2024-01-30T00:43:10;-4.70;58.00
38333;DHT22;25748;46.670;14.272;2024-01-30T00:45:36;-4.70;58.00
38333;DHT22;25748;46.670;14.272;2024-01-30T00:48:01;-4.70;58.20
38333;DHT22;25748;46.670;14.272;2024-01-30T00:50:27;-4.70;58.30
38333;DHT22;25748;46.670;14.272;2024-01-30T00:52:53;-4.70;58.40
38333;DHT22;25748;46.670;14.272;2024-01-30T00:55:18;-4.70;58.50
38333;DHT22;25748;46.670;14.272;2024-01-30T00:57:44;-4.70;58.40
38333;DHT22;25748;46.670;14.272;2024-01-30T01:00:10;-4.70;58.40
38333;DHT22;25748;46.670;14.272;2024-01-30T01:02:36;-4.70;58.40
38333;DHT22;25748;46.670;14.272;2024-01-30T01:05:02;-4.70;58.10
38333;DHT22;25748;46.670;14.272;2024-01-30T01:07:28;-4.70;58.40
38333;DHT22;25748;46.670;14.272;2024-01-30T01:09:55;-4.80;58.40
38333;DHT22;25748;46.670;14.272;2024-01-30T01:12:21;-4.80;58.50
38333;DHT22;25748;46.670;14.272;2024-01-30T01:14:46;-4.70;58.50
38333;DHT22;25748;46.670;14.272;2024-01-30T01:17:12;-4.80;58.40
38333;DHT22;25748;46.670;14.272;2024-01-30T01:19:38;-4.80;58.50
38333;DHT22;25748;46.670;14.272;2024-01-30T01:22:03;-4.80;58.60
38333;DHT22;25748;46.670;14.272;2024-01-30T01:24:32;-4.80;58.60
38333;DHT22;25748;46.670;14.272;2024-01-30T01:26:58;-4.80;58.60
38333;DHT22;25748;46.670;14.272;2024-01-30T01:29:24;-4.80;58.70
38333;DHT22;25748;46.670;14.272;2024-01-30T01:31:57;-4.70;58.80
38333;DHT22;25748;46.670;14.272;2024-01-30T01:34:23;-4.80;58.60
38333;DHT22;25748;46.670;14.272;2024-01-30T01:36:49;-4.80;58.50
38333;DHT22;25748;46.670;14.272;2024-01-30T01:39:16;-4.90;58.30
38333;DHT22;25748;46.670;14.272;2024-01-30T01:41:42;-4.90;58.50
38333;DHT22;25748;46.670;14.272;2024-01-30T01:44:08;-4.90;58.50
38333;DHT22;25748;46.670;14.272;2024-01-30T01:46:34;-4.90;58.50
38333;DHT22;25748;46.670;14.272;2024-01-30T01:49:04;-4.90;58.60
38333;DHT22;25748;46.670;14.272;2024-01-30T01:51:31;-4.90;58.60
38333;DHT22;25748;46.670;14.272;2024-01-30T01:54:00;-4.90;58.70
38333;DHT22;25748;46.670;14.272;2024-01-30T01:56:27;-4.90;58.80
38333;DHT22;25748;46.670;14.272;2024-01-30T01:58:55;-5.00;58.50
38333;DHT22;25748;46.670;14.272;2024-01-30T02:01:21;-5.00;58.70
38333;DHT22;25748;46.670;14.272;2024-01-30T02:03:47;-5.00;58.80
38333;DHT22;25748;46.670;14.272;2024-01-30T02:06:16;-5.00;58.80
38333;DHT22;25748;46.670;14.272;2024-01-30T02:08:42;-5.00;58.90
38333;DHT22;25748;46.670;14.272;2024-01-30T02:11:08;-5.00;58.80
38333;DHT22;25748;46.670;14.272;2024-01-30T02:13:35;-5.10;58.70
38333;DHT22;25748;46.670;14.272;2024-01-30T02:16:01;-5.00;58.90
38333;DHT22;25748;46.670;14.272;2024-01-30T02:18:27;-5.10;58.90
38333;DHT22;25748;46.670;14.272;2024-01-30T02:20:54;-5.10;58.80
38333;DHT22;25748;46.670;14.272;2024-01-30T02:23:20;-5.10;58.80
38333;DHT22;25748;46.670;14.272;2024-01-30T02:25:46;-5.10;58.60
38333;DHT22;25748;46.670;14.272;2024-01-30T02:28:12;-5.10;58.70
38333;DHT22;25748;46.670;14.272;2024-01-30T02:30:39;-5.10;58.70
38333;DHT22;25748;46.670;14.272;2024-01-30T02:33:05;-5.10;58.80
38333;DHT22;25748;46.670;14.272;2024-01-30T02:35:30;-5.20;58.70
38333;DHT22;25748;46.670;14.272;2024-01-30T02:37:56;-5.20;58.70
38333;DHT22;25748;46.670;14.272;2024-01-30T02:40:22;-5.20;58.60
38333;DHT22;25748;46.670;14.272;2024-01-30T02:42:47;-5.20;58.80
38333;DHT22;25748;46.670;14.272;2024-01-30T02:45:13;-5.20;58.90
38333;DHT22;25748;46.670;14.272;2024-01-30T02:47:40;-5.30;58.90
38333;DHT22;25748;46.670;14.272;2024-01-30T02:50:06;-5.20;59.00
38333;DHT22;25748;46.670;14.272;2024-01-30T02:52:32;-5.30;58.80
38333;DHT22;25748;46.670;14.272;2024-01-30T02:54:57;-5.30;58.80
38333;DHT22;25748;46.670;14.272;2024-01-30T02:57:23;-5.30;58.80
38333;DHT22;25748;46.670;14.272;2024-01-30T02:59:50;-5.30;59.00
38333;DHT22;25748;46.670;14.272;2024-01-30T03:02:16;-5.30;58.80
38333;DHT22;25748;46.670;14.272;2024-01-30T03:04:41;-5.30;58.80
38333;DHT22;25748;46.670;14.272;2024-01-30T03:07:08;-5.40;58.60
38333;DHT22;25748;46.670;14.272;2024-01-30T03:09:34;-5.40;58.60
38333;DHT22;25748;46.670;14.272;2024-01-30T03:11:59;-5.40;58.80
38333;DHT22;25748;46.670;14.272;2024-01-30T03:14:25;-5.40;58.80
38333;DHT22;25748;46.670;14.272;2024-01-30T03:16:50;-5.40;59.10
38333;DHT22;25748;46.670;14.272;2024-01-30T03:19:16;-5.40;58.80
38333;DHT22;25748;46.670;14.272;2024-01-30T03:21:42;-5.40;58.80
38333;DHT22;25748;46.670;14.272;2024-01-30T03:24:07;-5.40;58.80
38333;DHT22;25748;46.670;14.272;2024-01-30T03:26:34;-5.40;58.70
38333;DHT22;25748;46.670;14.272;2024-01-30T03:29:00;-5.50;58.60
38333;DHT22;25748;46.670;14.272;2024-01-30T03:31:25;-5.50;58.60
38333;DHT22;25748;46.670;14.272;2024-01-30T03:33:51;-5.50;58.70
38333;DHT22;25748;46.670;14.272;2024-01-30T03:36:17;-5.50;58.70
38333;DHT22;25748;46.670;14.272;2024-01-30T03:38:42;-5.50;58.50
38333;DHT22;25748;46.670;14.272;2024-01-30T03:41:08;-5.60;58.60
38333;DHT22;25748;46.670;14.272;2024-01-30T03:43:35;-5.60;58.50
38333;DHT22;25748;46.670;14.272;2024-01-30T03:46:01;-5.60;58.50
38333;DHT22;25748;46.670;14.272;2024-01-30T03:48:28;-5.70;58.50
38333;DHT22;25748;46.670;14.272;2024-01-30T03:50:54;-5.70;58.60
38333;DHT22;25748;46.670;14.272;2024-01-30T03:53:19;-5.70;59.00
38333;DHT22;25748;46.670;14.272;2024-01-30T03:55:45;-5.70;58.90
38333;DHT22;25748;46.670;14.272;2024-01-30T03:58:11;-5.70;58.70
38333;DHT22;25748;46.670;14.272;2024-01-30T04:00:36;-5.70;58.80
38333;DHT22;25748;46.670;14.272;2024-01-30T04:03:02;-5.70;58.90
38333;DHT22;25748;46.670;14.272;2024-01-30T04:05:28;-5.70;59.00
38333;DHT22;25748;46.670;14.272;2024-01-30T04:07:54;-5.70;59.00
38333;DHT22;25748;46.670;14.272;2024-01-30T04:10:20;-5.60;59.00
38333;DHT22;25748;46.670;14.272;2024-01-30T04:12:45;-5.70;58.90
38333;DHT22;25748;46.670;14.272;2024-01-30T04:15:11;-5.70;58.80
38333;DHT22;25748;46.670;14.272;2024-01-30T04:17:39;-5.70;58.80
38333;DHT22;25748;46.670;14.272;2024-01-30T04:20:05;-5.70;58.70
38333;DHT22;25748;46.670;14.272;2024-01-30T04:22:31;-5.80;58.80
38333;DHT22;25748;46.670;14.272;2024-01-30T04:24:56;-5.80;58.70
38333;DHT22;25748;46.670;14.272;2024-01-30T04:27:22;-5.80;58.90
38333;DHT22;25748;46.670;14.272;2024-01-30T04:29:48;-5.80;58.90
38333;DHT22;25748;46.670;14.272;2024-01-30T04:32:14;-5.80;59.00
38333;DHT22;25748;46.670;14.272;2024-01-30T04:34:39;-5.80;59.00
38333;DHT22;25748;46.670;14.272;2024-01-30T04:37:05;-5.80;59.10
38333;DHT22;25748;46.670;14.272;2024-01-30T04:39:32;-5.80;58.90
38333;DHT22;25748;46.670;14.272;2024-01-30T04:41:58;-5.90;58.60
38333;DHT22;25748;46.670;14.272;2024-01-30T04:44:24;-5.90;58.80
38333;DHT22;25748;46.670;14.272;2024-01-30T04:46:50;-5.90;58.80
38333;DHT22;25748;46.670;14.272;2024-01-30T04:49:16;-5.90;59.00
38333;DHT22;25748;46.670;14.272;2024-01-30T04:51:44;-5.90;59.20
38333;DHT22;25748;46.670;14.272;2024-01-30T04:54:12;-5.90;59.40
38333;DHT22;25748;46.670;14.272;2024-01-30T04:56:37;-5.80;59.50
38333;DHT22;25748;46.670;14.272;2024-01-30T04:59:04;-5.80;59.50
38333;DHT22;25748;46.670;14.272;2024-01-30T05:01:30;-5.80;59.50
38333;DHT22;25748;46.670;14.272;2024-01-30T05:03:56;-5.80;59.50
38333;DHT22;25748;46.670;14.272;2024-01-30T05:06:27;-5.80;59.40
38333;DHT22;25748;46.670;14.272;2024-01-30T05:08:53;-5.80;59.30
38333;DHT22;25748;46.670;14.272;2024-01-30T05:11:19;-5.80;59.20
38333;DHT22;25748;46.670;14.272;2024-01-30T05:13:45;-5.90;58.80
38333;DHT22;25748;46.670;14.272;2024-01-30T05:16:10;-6.00;58.80
38333;DHT22;25748;46.670;14.272;2024-01-30T05:18:36;-6.00;58.90
38333;DHT22;25748;46.670;14.272;2024-01-30T05:21:02;-6.10;58.70
38333;DHT22;25748;46.670;14.272;2024-01-30T05:23:28;-6.00;59.00
38333;DHT22;25748;46.670;14.272;2024-01-30T05:25:54;-6.10;58.90
38333;DHT22;25748;46.670;14.272;2024-01-30T05:28:19;-6.10;59.00
38333;DHT22;25748;46.670;14.272;2024-01-30T05:30:46;-6.10;58.90
38333;DHT22;25748;46.670;14.272;2024-01-30T05:33:12;-6.10;58.90
38333;DHT22;25748;46.670;14.272;2024-01-30T05:35:38;-6.10;58.90
38333;DHT22;25748;46.670;14.272;2024-01-30T05:38:04;-6.10;58.70
38333;DHT22;25748;46.670;14.272;2024-01-30T05:40:30;-6.10;58.80
38333;DHT22;25748;46.670;14.272;2024-01-30T05:42:56;-6.20;58.70
38333;DHT22;25748;46.670;14.272;2024-01-30T05:45:26;-6.20;58.70
38333;DHT22;25748;46.670;14.272;2024-01-30T05:47:53;-6.20;58.80
38333;DHT22;25748;46.670;14.272;2024-01-30T05:50:19;-6.30;58.80
38333;DHT22;25748;46.670;14.272;2024-01-30T05:52:45;-6.30;58.80
38333;DHT22;25748;46.670;14.272;2024-01-30T05:55:11;-6.30;58.90
38333;DHT22;25748;46.670;14.272;2024-01-30T05:57:37;-6.30;59.00
38333;DHT22;25748;46.670;14.272;2024-01-30T06:00:04;-6.30;59.20
38333;DHT22;25748;46.670;14.272;2024-01-30T06:02:31;-6.30;59.40
38333;DHT22;25748;46.670;14.272;2024-01-30T06:04:56;-6.30;59.50
38333;DHT22;25748;46.670;14.272;2024-01-30T06:07:22;-6.30;59.60
38333;DHT22;25748;46.670;14.272;2024-01-30T06:09:48;-6.20;59.70
38333;DHT22;25748;46.670;14.272;2024-01-30T06:12:14;-6.20;59.60
38333;DHT22;25748;46.670;14.272;2024-01-30T06:14:39;-6.30;59.50
38333;DHT22;25748;46.670;14.272;2024-01-30T06:17:08;-6.30;59.50
38333;DHT22;25748;46.670;14.272;2024-01-30T06:19:33;-6.20;59.60
38333;DHT22;25748;46.670;14.272;2024-01-30T06:21:59;-6.20;59.50
38333;DHT22;25748;46.670;14.272;2024-01-30T06:24:25;-6.20;59.40
38333;DHT22;25748;46.670;14.272;2024-01-30T06:26:50;-6.30;59.30
38333;DHT22;25748;46.670;14.272;2024-01-30T06:29:16;-6.30;59.40
38333;DHT22;25748;46.670;14.272;2024-01-30T06:31:42;-6.30;59.30
38333;DHT22;25748;46.670;14.272;2024-01-30T06:34:11;-6.30;59.20
38333;DHT22;25748;46.670;14.272;2024-01-30T06:36:37;-6.30;59.20
38333;DHT22;25748;46.670;14.272;2024-01-30T06:39:03;-6.30;59.30
38333;DHT22;25748;46.670;14.272;2024-01-30T06:41:29;-6.40;59.20
38333;DHT22;25748;46.670;14.272;2024-01-30T06:43:55;-6.30;59.40
38333;DHT22;25748;46.670;14.272;2024-01-30T06:46:21;-6.30;59.50
38333;DHT22;25748;46.670;14.272;2024-01-30T06:48:47;-6.30;59.60
38333;DHT22;25748;46.670;14.272;2024-01-30T06:51:13;-6.30;59.70
38333;DHT22;25748;46.670;14.272;2024-01-30T06:53:38;-6.30;59.70
38333;DHT22;25748;46.670;14.272;2024-01-30T06:56:05;-6.20;59.80
38333;DHT22;25748;46.670;14.272;2024-01-30T06:58:32;-6.20;59.80
38333;DHT22;25748;46.670;14.272;2024-01-30T07:00:58;-6.20;59.80
38333;DHT22;25748;46.670;14.272;2024-01-30T07:03:24;-6.20;59.80
38333;DHT22;25748;46.670;14.272;2024-01-30T07:05:49;-6.10;59.90
38333;DHT22;25748;46.670;14.272;2024-01-30T07:08:16;-6.10;59.90
38333;DHT22;25748;46.670;14.272;2024-01-30T07:10:44;-6.10;59.90
38333;DHT22;25748;46.670;14.272;2024-01-30T07:13:11;-6.00;60.00
38333;DHT22;25748;46.670;14.272;2024-01-30T07:15:36;-6.00;60.00
38333;DHT22;25748;46.670;14.272;2024-01-30T07:18:03;-6.00;59.90
38333;DHT22;25748;46.670;14.272;2024-01-30T07:20:30;-6.00;60.00
38333;DHT22;25748;46.670;14.272;2024-01-30T07:23:00;-6.00;60.10
38333;DHT22;25748;46.670;14.272;2024-01-30T07:25:25;-5.90;60.30
38333;DHT22;25748;46.670;14.272;2024-01-30T07:27:53;-5.80;60.60
38333;DHT22;25748;46.670;14.272;2024-01-30T07:30:19;-5.80;60.70
38333;DHT22;25748;46.670;14.272;2024-01-30T07:32:46;-5.70;61.00
38333;DHT22;25748;46.670;14.272;2024-01-30T07:35:13;-5.60;61.40
38333;DHT22;25748;46.670;14.272;2024-01-30T07:37:39;-5.50;61.70
38333;DHT22;25748;46.670;14.272;2024-01-30T07:40:05;-5.30;62.10
38333;DHT22;25748;46.670;14.272;2024-01-30T07:42:32;-5.20;62.40
38333;DHT22;25748;46.670;14.272;2024-01-30T07:44:58;-5.10;62.70
38333;DHT22;25748;46.670;14.272;2024-01-30T07:47:23;-4.80;63.10
38333;DHT22;25748;46.670;14.272;2024-01-30T07:49:49;-4.70;63.30
38333;DHT22;25748;46.670;14.272;2024-01-30T07:52:15;-4.50;63.50
38333;DHT22;25748;46.670;14.272;2024-01-30T07:58:02;-4.10;64.00
38333;DHT22;25748;46.670;14.272;2024-01-30T08:00:30;-3.90;64.30
38333;DHT22;25748;46.670;14.272;2024-01-30T08:02:56;-3.70;64.50
38333;DHT22;25748;46.670;14.272;2024-01-30T08:05:22;-3.50;64.70
38333;DHT22;25748;46.670;14.272;2024-01-30T08:07:49;-3.30;64.70
38333;DHT22;25748;46.670;14.272;2024-01-30T08:10:14;-3.10;64.70
38333;DHT22;25748;46.670;14.272;2024-01-30T08:12:40;-2.90;64.60
38333;DHT22;25748;46.670;14.272;2024-01-30T08:15:06;-2.80;64.10
38333;DHT22;25748;46.670;14.272;2024-01-30T08:17:32;-2.60;64.00
38333;DHT22;25748;46.670;14.272;2024-01-30T08:19:58;-2.40;63.90
38333;DHT22;25748;46.670;14.272;2024-01-30T08:22:24;-2.30;63.70
38333;DHT22;25748;46.670;14.272;2024-01-30T08:24:50;-2.10;63.70
38333;DHT22;25748;46.670;14.272;2024-01-30T08:27:15;-1.90;63.40
38333;DHT22;25748;46.670;14.272;2024-01-30T08:29:41;-1.80;62.80
38333;DHT22;25748;46.670;14.272;2024-01-30T08:32:07;-1.70;62.40
38333;DHT22;25748;46.670;14.272;2024-01-30T08:34:32;-1.50;62.60
38333;DHT22;25748;46.670;14.272;2024-01-30T08:36:58;-1.30;62.50
38333;DHT22;25748;46.670;14.272;2024-01-30T08:39:24;-1.20;61.60
38333;DHT22;25748;46.670;14.272;2024-01-30T08:41:49;-1.00;61.20
38333;DHT22;25748;46.670;14.272;2024-01-30T08:44:15;-0.90;60.70
38333;DHT22;25748;46.670;14.272;2024-01-30T08:46:41;-0.70;60.80
38333;DHT22;25748;46.670;14.272;2024-01-30T08:49:07;-0.60;60.40
38333;DHT22;25748;46.670;14.272;2024-01-30T08:51:33;-0.40;59.60
38333;DHT22;25748;46.670;14.272;2024-01-30T08:53:59;-0.30;59.30
38333;DHT22;25748;46.670;14.272;2024-01-30T08:56:25;-0.20;59.00
38333;DHT22;25748;46.670;14.272;2024-01-30T08:58:51;0.00;59.20
38333;DHT22;25748;46.670;14.272;2024-01-30T09:01:17;0.20;59.00
38333;DHT22;25748;46.670;14.272;2024-01-30T09:03:42;0.30;59.10
38333;DHT22;25748;46.670;14.272;2024-01-30T09:06:11;0.40;58.40
38333;DHT22;25748;46.670;14.272;2024-01-30T09:08:37;0.50;57.70
38333;DHT22;25748;46.670;14.272;2024-01-30T09:11:10;0.70;58.00
38333;DHT22;25748;46.670;14.272;2024-01-30T09:13:36;0.80;58.00
38333;DHT22;25748;46.670;14.272;2024-01-30T09:16:02;1.00;58.00
38333;DHT22;25748;46.670;14.272;2024-01-30T09:18:27;1.10;57.40
38333;DHT22;25748;46.670;14.272;2024-01-30T09:20:53;1.20;56.80
38333;DHT22;25748;46.670;14.272;2024-01-30T09:23:18;1.20;55.30
38333;DHT22;25748;46.670;14.272;2024-01-30T09:25:45;1.30;55.80
38333;DHT22;25748;46.670;14.272;2024-01-30T09:28:10;1.50;56.10
38333;DHT22;25748;46.670;14.272;2024-01-30T09:30:36;1.50;55.80
38333;DHT22;25748;46.670;14.272;2024-01-30T09:33:02;1.70;55.60
38333;DHT22;25748;46.670;14.272;2024-01-30T09:35:28;1.70;54.80
38333;DHT22;25748;46.670;14.272;2024-01-30T09:37:54;1.80;54.50
38333;DHT22;25748;46.670;14.272;2024-01-30T09:40:20;1.90;54.60
38333;DHT22;25748;46.670;14.272;2024-01-30T09:42:51;2.00;54.00
38333;DHT22;25748;46.670;14.272;2024-01-30T09:45:20;2.10;54.30
38333;DHT22;25748;46.670;14.272;2024-01-30T09:47:49;2.30;53.80
38333;DHT22;25748;46.670;14.272;2024-01-30T09:50:15;2.40;54.00
38333;DHT22;25748;46.670;14.272;2024-01-30T09:52:45;2.50;54.00
38333;DHT22;25748;46.670;14.272;2024-01-30T09:55:10;2.70;53.40
38333;DHT22;25748;46.670;14.272;2024-01-30T09:57:36;2.80;53.30
38333;DHT22;25748;46.670;14.272;2024-01-30T10:00:03;2.90;53.10
38333;DHT22;25748;46.670;14.272;2024-01-30T10:02:31;3.00;52.40
38333;DHT22;25748;46.670;14.272;2024-01-30T10:04:57;3.10;52.40
38333;DHT22;25748;46.670;14.272;2024-01-30T10:07:22;3.20;52.70
38333;DHT22;25748;46.670;14.272;2024-01-30T10:09:48;3.30;52.20
38333;DHT22;25748;46.670;14.272;2024-01-30T10:12:15;3.50;52.00
38333;DHT22;25748;46.670;14.272;2024-01-30T10:14:42;3.60;52.00
38333;DHT22;25748;46.670;14.272;2024-01-30T10:17:12;3.70;51.60
38333;DHT22;25748;46.670;14.272;2024-01-30T10:19:39;3.80;51.70
38333;DHT22;25748;46.670;14.272;2024-01-30T10:22:04;4.00;51.30
38333;DHT22;25748;46.670;14.272;2024-01-30T10:24:30;4.10;51.30
38333;DHT22;25748;46.670;14.272;2024-01-30T10:26:56;4.30;51.00
38333;DHT22;25748;46.670;14.272;2024-01-30T10:29:23;4.40;50.40
38333;DHT22;25748;46.670;14.272;2024-01-30T10:32:02;4.50;50.10
38333;DHT22;25748;46.670;14.272;2024-01-30T10:34:29;4.60;50.10
38333;DHT22;25748;46.670;14.272;2024-01-30T10:37:09;4.70;49.60
38333;DHT22;25748;46.670;14.272;2024-01-30T10:39:42;4.80;49.10
38333;DHT22;25748;46.670;14.272;2024-01-30T10:42:12;4.90;49.20
38333;DHT22;25748;46.670;14.272;2024-01-30T10:47:25;5.10;48.10
38333;DHT22;25748;46.670;14.272;2024-01-30T10:49:52;5.20;48.40
38333;DHT22;25748;46.670;14.272;2024-01-30T10:52:20;5.30;48.20
38333;DHT22;25748;46.670;14.272;2024-01-30T10:54:46;5.30;48.50
38333;DHT22;25748;46.670;14.272;2024-01-30T10:57:13;5.50;48.00
38333;DHT22;25748;46.670;14.272;2024-01-30T10:59:41;5.60;48.20
38333;DHT22;25748;46.670;14.272;2024-01-30T11:02:07;5.60;47.80
38333;DHT22;25748;46.670;14.272;2024-01-30T11:04:41;5.70;47.90
38333;DHT22;25748;46.670;14.272;2024-01-30T11:07:25;5.80;47.50
38333;DHT22;25748;46.670;14.272;2024-01-30T11:09:54;6.00;47.80
38333;DHT22;25748;46.670;14.272;2024-01-30T11:12:28;6.10;47.40
38333;DHT22;25748;46.670;14.272;2024-01-30T11:15:15;6.20;47.20
38333;DHT22;25748;46.670;14.272;2024-01-30T11:17:45;6.30;46.60
38333;DHT22;25748;46.670;14.272;2024-01-30T11:20:25;6.40;46.70
38333;DHT22;25748;46.670;14.272;2024-01-30T11:22:52;6.50;46.50
38333;DHT22;25748;46.670;14.272;2024-01-30T11:25:20;6.60;46.50
38333;DHT22;25748;46.670;14.272;2024-01-30T11:27:47;6.70;45.70
38333;DHT22;25748;46.670;14.272;2024-01-30T11:30:28;6.80;45.90
38333;DHT22;25748;46.670;14.272;2024-01-30T11:33:09;6.90;46.10
38333;DHT22;25748;46.670;14.272;2024-01-30T11:35:45;7.10;45.60
38333;DHT22;25748;46.670;14.272;2024-01-30T11:38:14;7.20;45.50
38333;DHT22;25748;46.670;14.272;2024-01-30T11:40:40;7.20;44.70
38333;DHT22;25748;46.670;14.272;2024-01-30T11:43:07;7.40;44.90
38333;DHT22;25748;46.670;14.272;2024-01-30T11:45:34;7.50;44.60
38333;DHT22;25748;46.670;14.272;2024-01-30T11:48:00;7.60;44.30
38333;DHT22;25748;46.670;14.272;2024-01-30T11:50:27;7.60;44.40
38333;DHT22;25748;46.670;14.272;2024-01-30T11:52:54;7.80;44.40
38333;DHT22;25748;46.670;14.272;2024-01-30T11:55:20;7.90;44.70
38333;DHT22;25748;46.670;14.272;2024-01-30T11:57:46;8.00;43.90
38333;DHT22;25748;46.670;14.272;2024-01-30T12:00:16;8.10;43.80
38333;DHT22;25748;46.670;14.272;2024-01-30T12:02:43;8.20;43.80
38333;DHT22;25748;46.670;14.272;2024-01-30T12:05:09;8.40;43.70
38333;DHT22;25748;46.670;14.272;2024-01-30T12:07:35;8.50;43.40
38333;DHT22;25748;46.670;14.272;2024-01-30T12:10:01;8.60;43.50
38333;DHT22;25748;46.670;14.272;2024-01-30T12:12:28;8.70;42.90
38333;DHT22;25748;46.670;14.272;2024-01-30T12:14:55;8.70;42.10
38333;DHT22;25748;46.670;14.272;2024-01-30T12:17:31;8.70;42.40
38333;DHT22;25748;46.670;14.272;2024-01-30T12:20:14;8.80;42.80
38333;DHT22;25748;46.670;14.272;2024-01-30T12:22:40;8.90;42.60
38333;DHT22;25748;46.670;14.272;2024-01-30T12:25:12;9.10;42.50
38333;DHT22;25748;46.670;14.272;2024-01-30T12:27:39;9.20;42.10
38333;DHT22;25748;46.670;14.272;2024-01-30T12:30:14;9.30;42.00
38333;DHT22;25748;46.670;14.272;2024-01-30T12:32:41;9.30;41.80
38333;DHT22;25748;46.670;14.272;2024-01-30T12:37:35;9.50;41.00
38333;DHT22;25748;46.670;14.272;2024-01-30T12:40:01;9.50;41.20
38333;DHT22;25748;46.670;14.272;2024-01-30T12:42:28;9.60;41.30
38333;DHT22;25748;46.670;14.272;2024-01-30T12:44:53;9.70;41.30
38333;DHT22;25748;46.670;14.272;2024-01-30T12:47:21;9.80;41.20
38333;DHT22;25748;46.670;14.272;2024-01-30T12:49:47;9.90;41.10
38333;DHT22;25748;46.670;14.272;2024-01-30T12:52:16;9.90;40.90
38333;DHT22;25748;46.670;14.272;2024-01-30T12:54:41;10.00;40.60
38333;DHT22;25748;46.670;14.272;2024-01-30T12:57:07;10.00;40.90
38333;DHT22;25748;46.670;14.272;2024-01-30T12:59:33;10.10;41.00
38333;DHT22;25748;46.670;14.272;2024-01-30T13:02:00;10.10;40.40
38333;DHT22;25748;46.670;14.272;2024-01-30T13:04:27;10.20;40.40
38333;DHT22;25748;46.670;14.272;2024-01-30T13:06:53;10.20;40.40
38333;DHT22;25748;46.670;14.272;2024-01-30T13:09:19;10.30;40.70
38333;DHT22;25748;46.670;14.272;2024-01-30T13:11:45;10.30;40.50
38333;DHT22;25748;46.670;14.272;2024-01-30T13:14:11;10.30;40.70
38333;DHT22;25748;46.670;14.272;2024-01-30T13:16:37;10.30;40.60
38333;DHT22;25748;46.670;14.272;2024-01-30T13:19:04;10.30;40.60
38333;DHT22;25748;46.670;14.272;2024-01-30T13:21:29;10.40;40.80
38333;DHT22;25748;46.670;14.272;2024-01-30T13:23:55;10.40;40.30
38333;DHT22;25748;46.670;14.272;2024-01-30T13:26:21;10.40;40.10
38333;DHT22;25748;46.670;14.272;2024-01-30T13:28:47;10.40;40.00
38333;DHT22;25748;46.670;14.272;2024-01-30T13:31:14;10.40;40.30
38333;DHT22;25748;46.670;14.272;2024-01-30T13:33:40;10.30;39.70
38333;DHT22;25748;46.670;14.272;2024-01-30T13:36:10;10.30;39.90
38333;DHT22;25748;46.670;14.272;2024-01-30T13:38:36;10.30;40.10
38333;DHT22;25748;46.670;14.272;2024-01-30T13:41:02;10.40;40.00
38333;DHT22;25748;46.670;14.272;2024-01-30T13:43:28;10.40;39.90
38333;DHT22;25748;46.670;14.272;2024-01-30T13:45:54;10.40;40.00
38333;DHT22;25748;46.670;14.272;2024-01-30T13:48:19;10.40;40.00
38333;DHT22;25748;46.670;14.272;2024-01-30T13:50:45;10.30;39.50
38333;DHT22;25748;46.670;14.272;2024-01-30T13:53:11;10.20;39.90
38333;DHT22;25748;46.670;14.272;2024-01-30T13:55:37;10.20;40.10
38333;DHT22;25748;46.670;14.272;2024-01-30T13:58:05;10.20;40.10
38333;DHT22;25748;46.670;14.272;2024-01-30T14:00:31;10.10;39.90
38333;DHT22;25748;46.670;14.272;2024-01-30T14:02:57;10.10;40.10
38333;DHT22;25748;46.670;14.272;2024-01-30T14:05:25;10.10;40.10
38333;DHT22;25748;46.670;14.272;2024-01-30T14:07:51;10.20;40.10
38333;DHT22;25748;46.670;14.272;2024-01-30T14:10:17;10.30;39.90
38333;DHT22;25748;46.670;14.272;2024-01-30T14:12:43;10.30;39.80
38333;DHT22;25748;46.670;14.272;2024-01-30T14:15:10;10.40;39.70
38333;DHT22;25748;46.670;14.272;2024-01-30T14:17:36;10.40;39.50
38333;DHT22;25748;46.670;14.272;2024-01-30T14:20:06;10.40;40.10
38333;DHT22;25748;46.670;14.272;2024-01-30T14:22:33;10.40;39.80
38333;DHT22;25748;46.670;14.272;2024-01-30T14:24:59;10.40;40.10
38333;DHT22;25748;46.670;14.272;2024-01-30T14:27:25;10.40;40.40
38333;DHT22;25748;46.670;14.272;2024-01-30T14:29:51;10.30;40.30
38333;DHT22;25748;46.670;14.272;2024-01-30T14:32:16;10.30;40.30
38333;DHT22;25748;46.670;14.272;2024-01-30T14:34:42;10.20;40.40
38333;DHT22;25748;46.670;14.272;2024-01-30T14:37:08;10.10;40.30
38333;DHT22;25748;46.670;14.272;2024-01-30T14:39:34;10.00;40.90
38333;DHT22;25748;46.670;14.272;2024-01-30T14:42:03;10.00;41.10
38333;DHT22;25748;46.670;14.272;2024-01-30T14:44:29;9.90;41.20
38333;DHT22;25748;46.670;14.272;2024-01-30T14:46:56;9.90;41.20
38333;DHT22;25748;46.670;14.272;2024-01-30T14:49:21;9.90;41.20
38333;DHT22;25748;46.670;14.272;2024-01-30T14:51:47;9.80;41.70
38333;DHT22;25748;46.670;14.272;2024-01-30T14:54:13;9.80;41.60
38333;DHT22;25748;46.670;14.272;2024-01-30T14:56:39;9.80;41.50
38333;DHT22;25748;46.670;14.272;2024-01-30T14:59:04;9.70;41.50
38333;DHT22;25748;46.670;14.272;2024-01-30T15:01:31;9.70;41.50
38333;DHT22;25748;46.670;14.272;2024-01-30T15:03:56;9.50;41.20
38333;DHT22;25748;46.670;14.272;2024-01-30T15:06:22;9.40;41.50
38333;DHT22;25748;46.670;14.272;2024-01-30T15:08:53;9.30;41.80
38333;DHT22;25748;46.670;14.272;2024-01-30T15:11:18;9.10;41.30
38333;DHT22;25748;46.670;14.272;2024-01-30T15:13:44;9.00;41.70
38333;DHT22;25748;46.670;14.272;2024-01-30T15:16:10;8.80;41.60
38333;DHT22;25748;46.670;14.272;2024-01-30T15:18:35;8.80;41.80
38333;DHT22;25748;46.670;14.272;2024-01-30T15:21:01;8.60;41.90
38333;DHT22;25748;46.670;14.272;2024-01-30T15:23:27;8.50;41.70
38333;DHT22;25748;46.670;14.272;2024-01-30T15:25:53;8.30;41.60